createdAt,value
2018-04-01T00:01:22.179Z,15.00
2018-04-01T00:03:49.225Z,14.87
2018-04-01T00:06:16.301Z,11.63
2018-04-01T00:08:43.367Z,10.70
2018-04-01T00:11:10.411Z,11.60
2018-04-01T00:13:37.488Z,15.03
2018-04-01T00:16:04.519Z,11.60
2018-04-01T00:18:31.578Z,10.03
2018-04-01T00:20:58.624Z,12.93
2018-04-01T00:23:25.658Z,17.23
2018-04-01T00:25:52.728Z,12.30
2018-04-01T00:28:19.778Z,10.03
2018-04-01T00:30:46.812Z,15.10
2018-04-01T00:33:13.858Z,11.37
2018-04-01T00:35:40.903Z,16.30
2018-04-01T00:38:07.956Z,11.27
2018-04-01T00:40:35.003Z,13.77
2018-04-01T00:43:02.039Z,12.00
2018-04-01T00:45:29.083Z,12.10
2018-04-01T00:47:56.142Z,13.00
2018-04-01T00:50:23.241Z,13.40
2018-04-01T00:52:50.302Z,12.67
2018-04-01T00:55:17.374Z,13.50
2018-04-01T00:57:44.497Z,10.70
2018-04-01T01:00:11.536Z,11.17
2018-04-01T01:02:38.589Z,16.00
2018-04-01T01:05:05.628Z,13.70
2018-04-01T01:07:32.679Z,15.90
2018-04-01T01:09:59.738Z,13.33
2018-04-01T01:12:26.768Z,12.43
2018-04-01T01:14:53.851Z,15.63
2018-04-01T01:17:20.896Z,10.90
2018-04-01T01:19:48.493Z,15.93
2018-04-01T01:22:15.531Z,11.73
2018-04-01T01:24:42.597Z,9.63
2018-04-01T01:27:09.630Z,10.27
2018-04-01T01:29:36.693Z,13.97
2018-04-01T01:32:03.727Z,9.13
2018-04-01T01:34:30.770Z,13.63
2018-04-01T01:36:57.844Z,11.63
2018-04-01T01:39:24.878Z,10.70
2018-04-01T01:41:51.932Z,10.60
2018-04-01T01:44:18.976Z,15.20
2018-04-01T01:46:46.832Z,16.33
2018-04-01T01:49:14.462Z,12.40
2018-04-01T01:51:41.498Z,11.20
2018-04-01T01:54:08.558Z,10.40
2018-04-01T01:56:35.587Z,9.57
2018-04-01T01:59:02.632Z,15.80
2018-04-01T02:01:29.672Z,11.00
2018-04-01T02:03:56.718Z,12.63
2018-04-01T02:06:23.790Z,10.97
2018-04-01T02:08:50.847Z,12.90
2018-04-01T02:11:18.806Z,10.80
2018-04-01T02:13:45.854Z,12.40
2018-04-01T02:16:12.887Z,12.23
2018-04-01T02:18:39.947Z,15.30
2018-04-01T02:21:07.001Z,11.30
2018-04-01T02:23:34.955Z,13.73
2018-04-01T02:26:02.007Z,11.40
2018-04-01T02:28:29.054Z,11.80
2018-04-01T02:30:56.109Z,10.50
2018-04-01T02:33:23.183Z,13.00
2018-04-01T02:35:50.211Z,11.70
2018-04-01T02:38:17.280Z,9.80
2018-04-01T02:40:44.301Z,10.53
2018-04-01T02:43:11.349Z,8.00
2018-04-01T02:45:38.425Z,7.03
2018-04-01T02:48:05.460Z,9.03
2018-04-01T02:50:33.631Z,6.50
2018-04-01T02:53:00.657Z,7.17
2018-04-01T02:55:27.730Z,9.50
2018-04-01T02:57:54.779Z,6.63
2018-04-01T03:00:21.841Z,6.30
2018-04-01T03:02:49.244Z,8.87
2018-04-01T03:05:16.338Z,8.50
2018-04-01T03:07:43.368Z,6.80
2018-04-01T03:10:10.415Z,6.43
2018-04-01T03:12:37.491Z,7.60
2018-04-01T03:15:04.543Z,6.93
2018-04-01T03:17:32.397Z,8.27
2018-04-01T03:19:59.439Z,7.00
2018-04-01T03:22:26.734Z,6.80
2018-04-01T03:24:53.751Z,7.20
2018-04-01T03:27:20.824Z,9.30
2018-04-01T03:29:47.858Z,8.27
2018-04-01T03:32:14.917Z,6.10
2018-04-01T03:34:41.953Z,9.60
2018-04-01T03:37:09.018Z,8.13
2018-04-01T03:39:36.063Z,9.30
2018-04-01T03:42:03.116Z,7.53
2018-04-01T03:44:30.170Z,8.33
2018-04-01T03:46:57.212Z,10.77
2018-04-01T03:49:24.268Z,10.83
2018-04-01T03:51:51.335Z,8.50
2018-04-01T03:54:18.380Z,11.93
2018-04-01T03:56:45.436Z,10.40
2018-04-01T03:59:12.474Z,12.70
2018-04-01T04:01:39.534Z,8.23
2018-04-01T04:04:06.579Z,11.60
2018-04-01T04:06:33.640Z,10.57
2018-04-01T04:09:00.690Z,11.57
2018-04-01T04:11:27.734Z,10.07
2018-04-01T04:13:54.804Z,10.50
2018-04-01T04:16:21.860Z,14.93
2018-04-01T04:18:48.898Z,16.33
2018-04-01T04:21:15.934Z,13.20
2018-04-01T04:23:42.987Z,10.40
2018-04-01T04:26:10.039Z,10.23
2018-04-01T04:28:37.099Z,12.27
2018-04-01T04:31:04.135Z,10.80
2018-04-01T04:33:31.202Z,10.03
2018-04-01T04:35:58.255Z,9.50
2018-04-01T04:38:25.304Z,9.83
2018-04-01T04:40:52.357Z,15.90
2018-04-01T04:43:19.439Z,10.80
2018-04-01T04:45:46.445Z,9.97
2018-04-01T04:48:13.473Z,9.43
2018-04-01T04:50:40.521Z,13.27
2018-04-01T04:53:07.560Z,9.53
2018-04-01T04:55:34.633Z,9.17
2018-04-01T04:58:01.670Z,8.17
2018-04-01T05:00:28.729Z,9.73
2018-04-01T05:02:55.756Z,11.13
2018-04-01T05:05:22.819Z,8.73
2018-04-01T05:07:49.911Z,8.30
2018-04-01T05:10:16.979Z,9.57
2018-04-01T05:12:43.995Z,9.37
2018-04-01T05:15:11.045Z,8.60
2018-04-01T05:17:38.086Z,10.23
2018-04-01T05:20:05.214Z,7.80
2018-04-01T05:22:32.278Z,10.67
2018-04-01T05:24:59.314Z,8.07
2018-04-01T05:27:26.353Z,7.60
2018-04-01T05:29:53.402Z,8.93
2018-04-01T05:32:20.454Z,8.07
2018-04-01T05:34:47.488Z,7.30
2018-04-01T05:37:14.530Z,7.70
2018-04-01T05:39:41.570Z,10.90
2018-04-01T05:42:08.628Z,10.93
2018-04-01T05:44:36.638Z,10.73
2018-04-01T05:47:03.697Z,7.83
2018-04-01T05:49:30.723Z,9.20
2018-04-01T05:51:58.179Z,7.57
2018-04-01T05:54:25.287Z,7.33
2018-04-01T05:56:52.285Z,8.33
2018-04-01T05:59:19.310Z,9.53
2018-04-01T06:01:46.365Z,7.20
2018-04-01T06:04:13.404Z,10.53
2018-04-01T06:06:40.453Z,9.47
2018-04-01T06:09:07.502Z,18.50
2018-04-01T06:11:34.548Z,8.50
2018-04-01T06:14:01.606Z,8.50
2018-04-01T06:16:28.678Z,11.97
2018-04-01T06:18:55.721Z,9.50
2018-04-01T06:21:22.787Z,10.13
2018-04-01T06:23:50.842Z,10.67
2018-04-01T06:26:17.913Z,13.00
2018-04-01T06:28:44.982Z,11.87
2018-04-01T06:31:12.094Z,10.30
2018-04-01T06:33:39.321Z,12.87
2018-04-01T06:36:06.355Z,11.47
2018-04-01T06:38:33.411Z,10.77
2018-04-01T06:41:00.452Z,11.20
2018-04-01T06:43:27.512Z,11.03
2018-04-01T06:45:54.548Z,14.37
2018-04-01T06:48:21.636Z,15.10
2018-04-01T06:50:48.728Z,11.83
2018-04-01T06:53:15.777Z,14.80
2018-04-01T06:55:42.812Z,13.73
2018-04-01T06:58:09.899Z,14.60
2018-04-01T07:00:36.950Z,14.57
2018-04-01T07:03:04.050Z,16.97
2018-04-01T07:05:31.095Z,13.50
2018-04-01T07:07:58.136Z,16.60
2018-04-01T07:10:25.265Z,20.67
2018-04-01T07:12:52.298Z,14.73
2018-04-01T07:15:19.358Z,16.90
2018-04-01T07:17:46.382Z,15.97
2018-04-01T07:20:13.488Z,13.97
2018-04-01T07:22:40.542Z,15.13
2018-04-01T07:25:07.623Z,19.00
2018-04-01T07:27:34.712Z,10.40
2018-04-01T07:30:01.767Z,13.50
2018-04-01T07:32:28.816Z,13.73
2018-04-01T07:34:55.846Z,11.30
2018-04-01T07:37:22.898Z,8.73
2018-04-01T07:39:49.939Z,7.93
2018-04-01T07:42:17.031Z,10.23
2018-04-01T07:44:44.065Z,12.83
2018-04-01T07:47:11.107Z,5.93
2018-04-01T07:49:38.146Z,8.30
2018-04-01T07:52:05.185Z,11.83
2018-04-01T07:54:32.214Z,9.83
2018-04-01T07:56:59.826Z,6.47
2018-04-01T07:59:26.883Z,8.40
2018-04-01T08:01:53.937Z,6.87
2018-04-01T08:04:20.989Z,9.40
2018-04-01T08:06:48.033Z,5.43
2018-04-01T08:09:15.091Z,6.80
2018-04-01T08:11:42.139Z,5.33
2018-04-01T08:14:09.188Z,6.47
2018-04-01T08:16:36.587Z,6.07
2018-04-01T08:19:03.623Z,4.73
2018-04-01T08:21:30.666Z,3.30
2018-04-01T08:23:57.707Z,5.23
2018-04-01T08:26:24.781Z,4.27
2018-04-01T08:28:51.924Z,3.33
2018-04-01T08:31:19.001Z,3.40
2018-04-01T08:33:46.070Z,3.93
2018-04-01T08:36:13.701Z,3.97
2018-04-01T08:38:40.974Z,4.30
2018-04-01T08:41:08.034Z,3.83
2018-04-01T08:43:35.081Z,4.30
2018-04-01T08:46:02.123Z,2.90
2018-04-01T08:48:29.162Z,3.80
2018-04-01T08:50:56.279Z,2.57
2018-04-01T08:53:23.322Z,3.00
2018-04-01T08:55:50.383Z,3.73
2018-04-01T08:58:17.410Z,6.23
2018-04-01T09:00:45.098Z,3.97
2018-04-01T09:03:12.134Z,2.63
2018-04-01T09:05:39.195Z,3.87
2018-04-01T09:08:06.244Z,4.40
2018-04-01T09:10:33.337Z,3.67
2018-04-01T09:13:00.381Z,4.33
2018-04-01T09:15:27.447Z,3.70
2018-04-01T09:17:54.498Z,4.27
2018-04-01T09:20:21.563Z,4.50
2018-04-01T09:22:48.657Z,3.47
2018-04-01T09:25:17.383Z,5.10
2018-04-01T09:27:44.443Z,5.73
2018-04-01T09:30:11.498Z,4.13
2018-04-01T09:32:38.538Z,2.80
2018-04-01T09:35:05.608Z,3.30
2018-04-01T09:37:32.687Z,5.10
2018-04-01T09:40:05.183Z,2.40
2018-04-01T09:42:32.377Z,2.73
2018-04-01T09:44:59.946Z,2.90
2018-04-01T09:47:26.996Z,3.30
2018-04-01T09:49:54.061Z,3.13
2018-04-01T09:52:21.122Z,2.30
2018-04-01T09:54:48.225Z,5.20
2018-04-01T09:57:15.246Z,4.03
2018-04-01T09:59:42.304Z,3.93
2018-04-01T10:02:09.596Z,2.73
2018-04-01T10:04:36.866Z,2.90
2018-04-01T10:07:04.132Z,3.90
2018-04-01T10:09:31.414Z,3.53
2018-04-01T10:11:58.694Z,3.53
2018-04-01T10:14:25.974Z,3.00
2018-04-01T10:16:53.388Z,4.43
2018-04-01T10:19:20.671Z,3.73
2018-04-01T10:21:47.991Z,4.00
2018-04-01T10:24:15.298Z,5.53
2018-04-01T10:26:42.623Z,2.40
2018-04-01T10:29:09.859Z,3.27
2018-04-01T10:31:37.130Z,2.77
2018-04-01T10:34:04.433Z,3.00
2018-04-01T10:36:35.057Z,3.73
2018-04-01T10:39:02.339Z,4.87
2018-04-01T10:41:30.458Z,5.03
2018-04-01T10:43:57.780Z,3.87
2018-04-01T10:46:25.073Z,4.00
2018-04-01T10:48:52.346Z,4.60
2018-04-01T10:51:19.638Z,3.17
2018-04-01T10:53:52.696Z,3.60
2018-04-01T10:56:19.733Z,3.10
2018-04-01T10:58:46.772Z,3.27
2018-04-01T11:01:14.307Z,3.00
2018-04-01T11:03:41.351Z,3.60
2018-04-01T11:06:09.247Z,3.40
2018-04-01T11:08:36.283Z,3.33
2018-04-01T11:11:03.335Z,3.20
2018-04-01T11:13:30.412Z,2.87
2018-04-01T11:15:58.063Z,2.60
2018-04-01T11:18:26.692Z,3.90
2018-04-01T11:20:55.120Z,4.97
2018-04-01T11:23:22.225Z,5.90
2018-04-01T11:25:49.259Z,4.60
2018-04-01T11:28:16.300Z,5.20
2018-04-01T11:30:43.452Z,4.17
2018-04-01T11:33:10.491Z,3.17
2018-04-01T11:35:37.561Z,4.10
2018-04-01T11:38:04.582Z,2.23
2018-04-01T11:40:31.632Z,2.90
2018-04-01T11:42:58.667Z,3.57
2018-04-01T11:45:25.715Z,2.10
2018-04-01T11:47:52.747Z,2.30
2018-04-01T11:50:19.851Z,3.47
2018-04-01T11:52:46.887Z,3.23
2018-04-01T11:55:13.930Z,2.87
2018-04-01T11:57:40.978Z,2.70
2018-04-01T12:00:08.025Z,4.80
2018-04-01T12:02:35.091Z,1.87
2018-04-01T12:05:02.150Z,10.23
2018-04-01T12:07:29.579Z,2.60
2018-04-01T12:09:56.595Z,4.40
2018-04-01T12:12:23.657Z,2.77
2018-04-01T12:14:50.708Z,2.10
2018-04-01T12:17:17.771Z,3.23
2018-04-01T12:19:44.835Z,3.33
2018-04-01T12:22:11.861Z,2.37
2018-04-01T12:24:38.909Z,11.13
2018-04-01T12:27:05.959Z,4.13
2018-04-01T12:29:33.004Z,1.47
2018-04-01T12:32:00.039Z,1.50
2018-04-01T12:34:27.074Z,3.30
2018-04-01T12:36:54.144Z,2.17
2018-04-01T12:39:21.197Z,3.50
2018-04-01T12:41:48.267Z,1.83
2018-04-01T12:44:15.303Z,1.30
2018-04-01T12:46:42.366Z,1.40
2018-04-01T12:49:09.423Z,1.83
2018-04-01T12:51:36.472Z,1.33
2018-04-01T12:54:03.537Z,1.80
2018-04-01T12:56:31.080Z,1.90
2018-04-01T12:58:58.146Z,1.87
2018-04-01T13:01:25.246Z,1.40
2018-04-01T13:03:52.326Z,1.77
2018-04-01T13:06:19.469Z,1.80
2018-04-01T13:08:46.547Z,2.93
2018-04-01T13:11:13.607Z,3.33
2018-04-01T13:13:40.678Z,1.70
2018-04-01T13:16:07.772Z,1.80
2018-04-01T13:18:34.813Z,4.43
2018-04-01T13:21:01.868Z,2.70
2018-04-01T13:23:28.917Z,1.40
2018-04-01T13:25:55.952Z,3.20
2018-04-01T13:28:23.030Z,3.80
2018-04-01T13:30:50.234Z,1.90
2018-04-01T13:33:17.263Z,1.50
2018-04-01T13:35:44.349Z,1.40
2018-04-01T13:38:11.398Z,2.73
2018-04-01T13:40:39.109Z,2.40
2018-04-01T13:43:06.421Z,1.30
2018-04-01T13:45:33.507Z,2.83
2018-04-01T13:48:00.572Z,2.90
2018-04-01T13:50:27.637Z,1.00
2018-04-01T13:52:54.805Z,1.00
2018-04-01T13:55:21.847Z,1.93
2018-04-01T13:57:48.939Z,2.87
2018-04-01T14:00:16.855Z,5.70
2018-04-01T14:02:43.903Z,3.27
2018-04-01T14:05:10.945Z,2.00
2018-04-01T14:07:38.038Z,1.17
2018-04-01T14:10:05.067Z,1.33
2018-04-01T14:12:32.134Z,1.20
2018-04-01T14:14:59.224Z,2.00
2018-04-01T14:17:26.263Z,2.37
2018-04-01T14:19:53.381Z,1.60
2018-04-01T14:22:20.767Z,1.73
2018-04-01T14:24:47.863Z,1.60
2018-04-01T14:27:14.947Z,2.17
2018-04-01T14:33:11.520Z,1.83
2018-04-01T14:35:38.793Z,1.53
2018-04-01T14:38:05.947Z,2.10
2018-04-01T14:40:33.030Z,2.27
2018-04-01T14:43:00.093Z,2.50
2018-04-01T14:45:27.167Z,1.20
2018-04-01T14:47:54.243Z,1.83
2018-04-01T14:50:21.395Z,2.00
2018-04-01T14:52:48.445Z,2.00
2018-04-01T14:55:15.495Z,1.80
2018-04-01T14:57:42.614Z,2.40
2018-04-01T15:00:09.673Z,2.83
2018-04-01T15:02:36.715Z,1.90
2018-04-01T15:05:03.743Z,2.67
2018-04-01T15:07:30.800Z,2.80
2018-04-01T15:09:57.840Z,4.43
2018-04-01T15:12:25.671Z,3.57
2018-04-01T15:14:52.696Z,2.57
2018-04-01T15:17:20.011Z,3.63
2018-04-01T15:19:47.049Z,5.10
2018-04-01T15:22:14.159Z,3.33
2018-04-01T15:24:41.334Z,6.50
2018-04-01T15:27:08.435Z,3.60
2018-04-01T15:29:35.927Z,4.80
2018-04-01T15:32:03.048Z,5.43
2018-04-01T15:34:30.094Z,4.83
2018-04-01T15:36:57.139Z,2.67
2018-04-01T15:39:24.211Z,2.97
2018-04-01T15:41:51.267Z,4.70
2018-04-01T15:44:18.336Z,4.30
2018-04-01T15:46:45.407Z,3.47
2018-04-01T15:49:12.445Z,3.07
2018-04-01T15:51:39.528Z,3.20
2018-04-01T15:54:07.048Z,2.87
2018-04-01T15:56:34.130Z,3.37
2018-04-01T15:59:01.197Z,5.20
2018-04-01T16:01:28.295Z,8.53
2018-04-01T16:03:55.679Z,3.83
2018-04-01T16:06:22.712Z,2.37
2018-04-01T16:08:49.751Z,5.03
2018-04-01T16:11:16.783Z,1.90
2018-04-01T16:13:43.842Z,3.63
2018-04-01T16:16:10.879Z,2.63
2018-04-01T16:18:37.947Z,3.30
2018-04-01T16:21:05.020Z,3.53
2018-04-01T16:23:32.074Z,5.50
2018-04-01T16:25:59.113Z,6.50
2018-04-01T16:28:26.162Z,7.00
2018-04-01T16:30:53.254Z,4.17
2018-04-01T16:33:20.326Z,2.67
2018-04-01T16:35:47.367Z,3.93
2018-04-01T16:38:14.396Z,8.83
2018-04-01T16:40:41.444Z,4.30
2018-04-01T16:43:08.891Z,5.00
2018-04-01T16:45:35.932Z,4.10
2018-04-01T16:48:03.000Z,5.43
2018-04-01T16:50:30.058Z,4.60
2018-04-01T16:52:57.168Z,2.83
2018-04-01T16:55:24.181Z,3.07
2018-04-01T16:57:51.275Z,3.60
2018-04-01T17:00:18.323Z,3.33
2018-04-01T17:02:45.387Z,4.70
2018-04-01T17:05:12.462Z,3.60
2018-04-01T17:07:39.577Z,3.43
2018-04-01T17:10:06.626Z,11.37
2018-04-01T17:12:33.721Z,3.83
2018-04-01T17:15:00.933Z,3.80
2018-04-01T17:17:27.958Z,4.23
2018-04-01T17:19:55.040Z,6.27
2018-04-01T17:22:22.078Z,7.60
2018-04-01T17:24:49.123Z,8.00
2018-04-01T17:27:16.156Z,5.43
2018-04-01T17:29:43.450Z,9.37
2018-04-01T17:32:10.464Z,5.07
2018-04-01T17:34:37.574Z,4.07
2018-04-01T17:37:04.662Z,5.43
2018-04-01T17:39:31.715Z,2.90
2018-04-01T17:41:58.760Z,5.53
2018-04-01T17:44:25.800Z,5.37
2018-04-01T17:46:52.864Z,7.03
2018-04-01T17:49:19.971Z,4.30
2018-04-01T17:51:46.980Z,4.43
2018-04-01T17:54:14.027Z,5.40
2018-04-01T17:56:41.101Z,5.37
2018-04-01T17:59:08.139Z,5.20
2018-04-01T18:01:35.187Z,6.13
2018-04-01T18:04:02.280Z,6.17
2018-04-01T18:06:29.384Z,4.27
2018-04-01T18:08:56.427Z,5.67
2018-04-01T18:11:23.458Z,3.93
2018-04-01T18:13:50.539Z,7.20
2018-04-01T18:16:17.579Z,10.50
2018-04-01T18:18:44.628Z,9.87
2018-04-01T18:21:11.663Z,9.00
2018-04-01T18:23:38.707Z,8.43
2018-04-01T18:26:05.751Z,9.20
2018-04-01T18:28:32.803Z,6.33
2018-04-01T18:30:59.853Z,9.57
2018-04-01T18:33:26.882Z,8.07
2018-04-01T18:35:53.928Z,11.17
2018-04-01T18:38:20.966Z,12.00
2018-04-01T18:40:48.060Z,10.03
2018-04-01T18:43:15.081Z,5.57
2018-04-01T18:45:42.169Z,6.13
2018-04-01T18:48:09.155Z,4.70
2018-04-01T18:50:36.241Z,6.33
2018-04-01T18:53:03.230Z,10.40
2018-04-01T18:55:30.285Z,5.77
2018-04-01T18:57:57.329Z,7.47
2018-04-01T19:00:24.356Z,5.73
2018-04-01T19:02:51.441Z,10.77
2018-04-01T19:05:18.471Z,7.53
2018-04-01T19:07:45.526Z,6.57
2018-04-01T19:10:12.558Z,10.23
2018-04-01T19:12:39.620Z,9.07
2018-04-01T19:15:06.671Z,6.00
2018-04-01T19:17:33.957Z,10.23
2018-04-01T19:20:02.059Z,5.20
2018-04-01T19:22:29.379Z,6.80
2018-04-01T19:24:56.608Z,9.20
2018-04-01T19:27:23.894Z,5.20
2018-04-01T19:29:51.184Z,5.10
2018-04-01T19:32:18.494Z,5.00
2018-04-01T19:34:46.040Z,5.27
2018-04-01T19:37:13.295Z,5.47
2018-04-01T19:39:40.563Z,6.30
2018-04-01T19:42:07.938Z,8.10
2018-04-01T19:44:35.250Z,7.60
2018-04-01T19:47:02.538Z,7.40
2018-04-01T19:49:29.827Z,8.50
2018-04-01T19:51:57.159Z,7.00
2018-04-01T19:54:24.492Z,8.17
2018-04-01T19:56:51.780Z,13.00
2018-04-01T19:59:19.043Z,7.10
2018-04-01T20:01:46.383Z,7.80
2018-04-01T20:04:13.628Z,8.73
2018-04-01T20:06:40.962Z,8.27
2018-04-01T20:09:08.244Z,6.93
2018-04-01T20:11:35.533Z,7.23
2018-04-01T20:14:02.842Z,5.10
2018-04-01T20:16:30.099Z,4.90
2018-04-01T20:18:57.381Z,6.17
2018-04-01T20:21:24.654Z,7.00
2018-04-01T20:23:51.965Z,6.60
2018-04-01T20:26:19.256Z,13.30
2018-04-01T20:28:46.541Z,5.80
2018-04-01T20:31:13.837Z,6.37
2018-04-01T20:33:41.103Z,8.07
2018-04-01T20:36:08.403Z,9.67
2018-04-01T20:38:35.679Z,5.67
2018-04-01T20:41:03.024Z,6.40
2018-04-01T20:43:30.351Z,4.23
2018-04-01T20:45:57.570Z,5.63
2018-04-01T20:48:24.846Z,11.73
2018-04-01T20:50:52.138Z,6.07
2018-04-01T20:53:19.410Z,6.13
2018-04-01T20:55:46.699Z,11.60
2018-04-01T20:58:14.002Z,8.63
2018-04-01T21:00:41.287Z,4.70
2018-04-01T21:03:08.581Z,6.90
2018-04-01T21:05:35.869Z,6.67
2018-04-01T21:08:03.150Z,8.00
2018-04-01T21:10:30.431Z,6.57
2018-04-01T21:12:57.715Z,7.33
2018-04-01T21:15:25.045Z,9.30
2018-04-01T21:17:52.301Z,6.30
2018-04-01T21:20:19.586Z,6.90
2018-04-01T21:22:47.811Z,9.03
2018-04-01T21:25:15.111Z,9.97
2018-04-01T21:27:42.387Z,7.50
2018-04-01T21:30:09.671Z,8.27
2018-04-01T21:32:36.972Z,6.63
2018-04-01T21:35:04.263Z,7.43
2018-04-01T21:37:31.646Z,6.47
2018-04-01T21:39:58.941Z,8.33
2018-04-01T21:42:26.214Z,6.07
2018-04-01T21:44:53.494Z,6.77
2018-04-01T21:47:21.734Z,6.57
2018-04-01T21:49:49.023Z,8.90
2018-04-01T21:52:16.318Z,5.83
2018-04-01T21:54:43.708Z,8.27
2018-04-01T21:57:11.096Z,11.07
2018-04-01T21:59:38.361Z,7.33
2018-04-01T22:02:06.794Z,6.17
2018-04-01T22:04:34.062Z,7.37
2018-04-01T22:07:01.385Z,7.80
2018-04-01T22:09:28.655Z,9.30
2018-04-01T22:11:55.945Z,8.87
2018-04-01T22:14:23.260Z,7.57
2018-04-01T22:16:50.554Z,19.13
2018-04-01T22:19:17.872Z,7.10
2018-04-01T22:21:45.185Z,8.43
2018-04-01T22:24:12.478Z,9.70
2018-04-01T22:26:39.772Z,6.87
2018-04-01T22:29:07.082Z,8.83
2018-04-01T22:31:34.447Z,9.10
2018-04-01T22:34:03.556Z,12.63
2018-04-01T22:36:31.478Z,10.50
2018-04-01T22:38:58.782Z,9.77
2018-04-01T22:41:26.161Z,10.23
2018-04-01T22:43:53.454Z,12.63
2018-04-01T22:46:20.764Z,11.10
2018-04-01T22:48:48.028Z,8.07
2018-04-01T22:51:15.318Z,15.30
2018-04-01T22:53:42.608Z,8.27
2018-04-01T22:56:09.902Z,11.07
2018-04-01T22:58:37.189Z,9.60
2018-04-01T23:01:04.495Z,11.30
2018-04-01T23:03:31.778Z,10.27
2018-04-01T23:05:59.086Z,10.73
2018-04-01T23:08:26.368Z,13.73
2018-04-01T23:10:53.671Z,11.70
2018-04-01T23:13:20.967Z,11.43
2018-04-01T23:15:48.260Z,12.03
2018-04-01T23:18:15.527Z,12.30
2018-04-01T23:20:42.828Z,17.87
2018-04-01T23:23:10.096Z,10.63
2018-04-01T23:25:37.388Z,10.23
2018-04-01T23:28:04.673Z,17.43
2018-04-01T23:30:31.962Z,9.50
2018-04-01T23:32:59.233Z,10.40
2018-04-01T23:35:26.511Z,10.93
2018-04-01T23:37:53.805Z,9.53
2018-04-01T23:40:21.087Z,10.97
2018-04-01T23:42:48.360Z,9.63
2018-04-01T23:45:15.634Z,7.77
2018-04-01T23:47:42.927Z,13.20
2018-04-01T23:50:10.199Z,9.57
2018-04-01T23:52:37.504Z,9.43
2018-04-01T23:55:04.776Z,9.37
2018-04-01T23:57:32.070Z,7.43
2018-04-01T23:59:59.326Z,8.23
